sensor_id;sensor_type;location;lat;lon;timestamp;P1;durP1;ratioP1;P2;durP2;ratioP2
64959;SDS011;51487;52.266;10.542;2023-07-02T00:01:47;7.68;;;3.75;;
64959;SDS011;51487;52.266;10.542;2023-07-02T00:04:13;4.50;;;3.38;;
64959;SDS011;51487;52.266;10.542;2023-07-02T00:06:44;3.60;;;3.05;;
64959;SDS011;51487;52.266;10.542;2023-07-02T00:09:13;4.47;;;3.33;;
64959;SDS011;51487;52.266;10.542;2023-07-02T00:11:42;7.80;;;3.50;;
64959;SDS011;51487;52.266;10.542;2023-07-02T00:14:11;5.57;;;3.35;;
64959;SDS011;51487;52.266;10.542;2023-07-02T00:16:38;6.82;;;3.40;;
64959;SDS011;51487;52.266;10.542;2023-07-02T00:19:10;5.82;;;3.20;;
64959;SDS011;51487;52.266;10.542;2023-07-02T00:21:39;5.00;;;3.20;;
64959;SDS011;51487;52.266;10.542;2023-07-02T00:24:05;4.70;;;3.13;;
64959;SDS011;51487;52.266;10.542;2023-07-02T00:26:32;6.25;;;3.10;;
64959;SDS011;51487;52.266;10.542;2023-07-02T00:28:57;3.45;;;3.03;;
64959;SDS011;51487;52.266;10.542;2023-07-02T00:31:23;6.78;;;3.38;;
64959;SDS011;51487;52.266;10.542;2023-07-02T00:33:49;5.57;;;3.40;;
64959;SDS011;51487;52.266;10.542;2023-07-02T00:36:16;4.15;;;3.20;;
64959;SDS011;51487;52.266;10.542;2023-07-02T00:38:42;8.88;;;3.08;;
64959;SDS011;51487;52.266;10.542;2023-07-02T00:41:11;7.10;;;3.05;;
64959;SDS011;51487;52.266;10.542;2023-07-02T00:43:37;5.30;;;2.95;;
64959;SDS011;51487;52.266;10.542;2023-07-02T00:46:09;5.07;;;2.80;;
64959;SDS011;51487;52.266;10.542;2023-07-02T00:48:51;5.18;;;2.67;;
64959;SDS011;51487;52.266;10.542;2023-07-02T00:51:21;8.50;;;2.88;;
64959;SDS011;51487;52.266;10.542;2023-07-02T00:53:52;3.25;;;2.90;;
64959;SDS011;51487;52.266;10.542;2023-07-02T00:56:21;5.28;;;2.90;;
64959;SDS011;51487;52.266;10.542;2023-07-02T00:58:48;4.45;;;3.13;;
64959;SDS011;51487;52.266;10.542;2023-07-02T01:01:19;4.53;;;3.08;;
64959;SDS011;51487;52.266;10.542;2023-07-02T01:06:25;7.00;;;2.70;;
64959;SDS011;51487;52.266;10.542;2023-07-02T01:08:57;4.25;;;2.40;;
64959;SDS011;51487;52.266;10.542;2023-07-02T01:11:49;5.07;;;2.40;;
64959;SDS011;51487;52.266;10.542;2023-07-02T01:14:26;5.55;;;2.40;;
64959;SDS011;51487;52.266;10.542;2023-07-02T01:17:08;6.30;;;2.45;;
64959;SDS011;51487;52.266;10.542;2023-07-02T01:22:22;4.00;;;2.25;;
64959;SDS011;51487;52.266;10.542;2023-07-02T01:24:51;4.03;;;1.90;;
64959;SDS011;51487;52.266;10.542;2023-07-02T01:27:18;4.57;;;2.33;;
64959;SDS011;51487;52.266;10.542;2023-07-02T01:29:44;4.05;;;2.15;;
64959;SDS011;51487;52.266;10.542;2023-07-02T01:32:12;6.32;;;2.30;;
64959;SDS011;51487;52.266;10.542;2023-07-02T01:34:41;4.35;;;2.00;;
64959;SDS011;51487;52.266;10.542;2023-07-02T01:37:09;4.80;;;2.00;;
64959;SDS011;51487;52.266;10.542;2023-07-02T01:39:35;3.08;;;1.95;;
64959;SDS011;51487;52.266;10.542;2023-07-02T01:42:07;3.83;;;2.08;;
64959;SDS011;51487;52.266;10.542;2023-07-02T01:44:42;4.75;;;2.00;;
64959;SDS011;51487;52.266;10.542;2023-07-02T01:47:17;4.20;;;2.03;;
64959;SDS011;51487;52.266;10.542;2023-07-02T01:49:44;3.85;;;1.98;;
64959;SDS011;51487;52.266;10.542;2023-07-02T01:52:10;3.60;;;2.00;;
64959;SDS011;51487;52.266;10.542;2023-07-02T01:54:35;3.50;;;1.90;;
64959;SDS011;51487;52.266;10.542;2023-07-02T01:57:01;6.68;;;2.00;;
64959;SDS011;51487;52.266;10.542;2023-07-02T01:59:27;4.40;;;2.20;;
64959;SDS011;51487;52.266;10.542;2023-07-02T02:01:53;3.97;;;2.00;;
64959;SDS011;51487;52.266;10.542;2023-07-02T02:04:18;3.33;;;2.10;;
64959;SDS011;51487;52.266;10.542;2023-07-02T02:06:44;5.25;;;2.20;;
64959;SDS011;51487;52.266;10.542;2023-07-02T02:09:10;4.78;;;2.33;;
64959;SDS011;51487;52.266;10.542;2023-07-02T02:11:39;3.88;;;2.10;;
64959;SDS011;51487;52.266;10.542;2023-07-02T02:14:09;5.35;;;2.30;;
64959;SDS011;51487;52.266;10.542;2023-07-02T02:16:35;4.80;;;2.20;;
64959;SDS011;51487;52.266;10.542;2023-07-02T02:19:00;2.67;;;2.00;;
64959;SDS011;51487;52.266;10.542;2023-07-02T02:21:27;7.78;;;2.22;;
64959;SDS011;51487;52.266;10.542;2023-07-02T02:23:53;3.70;;;2.20;;
64959;SDS011;51487;52.266;10.542;2023-07-02T02:26:18;5.10;;;2.35;;
64959;SDS011;51487;52.266;10.542;2023-07-02T02:28:46;2.90;;;2.20;;
64959;SDS011;51487;52.266;10.542;2023-07-02T02:31:13;3.30;;;1.85;;
64959;SDS011;51487;52.266;10.542;2023-07-02T02:33:39;5.65;;;2.17;;
64959;SDS011;51487;52.266;10.542;2023-07-02T02:36:05;5.20;;;2.50;;
64959;SDS011;51487;52.266;10.542;2023-07-02T02:38:31;4.45;;;2.03;;
64959;SDS011;51487;52.266;10.542;2023-07-02T02:40:56;3.17;;;2.20;;
64959;SDS011;51487;52.266;10.542;2023-07-02T02:43:22;5.20;;;2.17;;
64959;SDS011;51487;52.266;10.542;2023-07-02T02:45:47;4.78;;;2.00;;
64959;SDS011;51487;52.266;10.542;2023-07-02T02:48:13;5.03;;;2.42;;
64959;SDS011;51487;52.266;10.542;2023-07-02T02:50:39;3.53;;;2.22;;
64959;SDS011;51487;52.266;10.542;2023-07-02T02:53:08;4.57;;;2.50;;
64959;SDS011;51487;52.266;10.542;2023-07-02T02:55:35;2.90;;;2.10;;
64959;SDS011;51487;52.266;10.542;2023-07-02T02:58:01;5.80;;;2.40;;
64959;SDS011;51487;52.266;10.542;2023-07-02T03:00:27;5.15;;;2.38;;
64959;SDS011;51487;52.266;10.542;2023-07-02T03:02:53;5.38;;;2.33;;
64959;SDS011;51487;52.266;10.542;2023-07-02T03:05:18;4.45;;;1.95;;
64959;SDS011;51487;52.266;10.542;2023-07-02T03:07:44;5.47;;;2.40;;
64959;SDS011;51487;52.266;10.542;2023-07-02T03:10:10;4.38;;;2.20;;
64959;SDS011;51487;52.266;10.542;2023-07-02T03:12:35;3.08;;;2.10;;
64959;SDS011;51487;52.266;10.542;2023-07-02T03:15:01;4.43;;;2.25;;
64959;SDS011;51487;52.266;10.542;2023-07-02T03:17:26;3.65;;;2.40;;
64959;SDS011;51487;52.266;10.542;2023-07-02T03:19:52;5.15;;;2.30;;
64959;SDS011;51487;52.266;10.542;2023-07-02T03:22:17;3.63;;;2.50;;
64959;SDS011;51487;52.266;10.542;2023-07-02T03:24:43;6.18;;;2.33;;
64959;SDS011;51487;52.266;10.542;2023-07-02T03:27:09;5.75;;;2.75;;
64959;SDS011;51487;52.266;10.542;2023-07-02T03:29:34;4.65;;;2.30;;
64959;SDS011;51487;52.266;10.542;2023-07-02T03:32:01;6.28;;;2.60;;
64959;SDS011;51487;52.266;10.542;2023-07-02T03:34:27;4.82;;;2.58;;
64959;SDS011;51487;52.266;10.542;2023-07-02T03:36:52;6.97;;;2.75;;
64959;SDS011;51487;52.266;10.542;2023-07-02T03:39:18;4.38;;;2.47;;
64959;SDS011;51487;52.266;10.542;2023-07-02T03:41:44;3.55;;;2.33;;
64959;SDS011;51487;52.266;10.542;2023-07-02T03:44:10;4.63;;;2.78;;
64959;SDS011;51487;52.266;10.542;2023-07-02T03:46:35;4.55;;;2.53;;
64959;SDS011;51487;52.266;10.542;2023-07-02T03:49:02;5.65;;;2.83;;
64959;SDS011;51487;52.266;10.542;2023-07-02T03:51:28;5.32;;;2.88;;
64959;SDS011;51487;52.266;10.542;2023-07-02T03:54:00;4.75;;;2.70;;
64959;SDS011;51487;52.266;10.542;2023-07-02T03:56:26;15.35;;;3.95;;
64959;SDS011;51487;52.266;10.542;2023-07-02T03:58:52;6.45;;;2.90;;
64959;SDS011;51487;52.266;10.542;2023-07-02T04:01:18;3.38;;;2.70;;
64959;SDS011;51487;52.266;10.542;2023-07-02T04:03:52;5.72;;;2.90;;
64959;SDS011;51487;52.266;10.542;2023-07-02T04:06:19;3.83;;;2.65;;
64959;SDS011;51487;52.266;10.542;2023-07-02T04:08:45;6.55;;;2.92;;
64959;SDS011;51487;52.266;10.542;2023-07-02T04:11:11;7.13;;;3.10;;
64959;SDS011;51487;52.266;10.542;2023-07-02T04:13:37;4.85;;;3.03;;
64959;SDS011;51487;52.266;10.542;2023-07-02T04:16:04;5.53;;;2.80;;
64959;SDS011;51487;52.266;10.542;2023-07-02T04:18:30;3.92;;;2.75;;
64959;SDS011;51487;52.266;10.542;2023-07-02T04:20:56;6.43;;;2.90;;
64959;SDS011;51487;52.266;10.542;2023-07-02T04:23:23;6.70;;;2.90;;
64959;SDS011;51487;52.266;10.542;2023-07-02T04:25:49;5.38;;;2.67;;
64959;SDS011;51487;52.266;10.542;2023-07-02T04:28:15;4.90;;;2.70;;
64959;SDS011;51487;52.266;10.542;2023-07-02T04:30:41;5.07;;;2.95;;
64959;SDS011;51487;52.266;10.542;2023-07-02T04:33:07;4.63;;;2.63;;
64959;SDS011;51487;52.266;10.542;2023-07-02T04:35:33;6.50;;;3.40;;
64959;SDS011;51487;52.266;10.542;2023-07-02T04:38:02;5.57;;;3.10;;
64959;SDS011;51487;52.266;10.542;2023-07-02T04:40:27;3.00;;;2.50;;
64959;SDS011;51487;52.266;10.542;2023-07-02T04:42:53;3.97;;;2.75;;
64959;SDS011;51487;52.266;10.542;2023-07-02T04:45:25;5.77;;;3.20;;
64959;SDS011;51487;52.266;10.542;2023-07-02T04:47:52;5.68;;;2.80;;
64959;SDS011;51487;52.266;10.542;2023-07-02T04:50:18;4.45;;;2.80;;
64959;SDS011;51487;52.266;10.542;2023-07-02T04:52:44;5.88;;;2.70;;
64959;SDS011;51487;52.266;10.542;2023-07-02T04:55:10;3.78;;;3.03;;
64959;SDS011;51487;52.266;10.542;2023-07-02T04:57:36;3.72;;;2.78;;
64959;SDS011;51487;52.266;10.542;2023-07-02T05:00:02;3.35;;;2.80;;
64959;SDS011;51487;52.266;10.542;2023-07-02T05:02:29;6.60;;;3.15;;
64959;SDS011;51487;52.266;10.542;2023-07-02T05:04:55;7.22;;;3.10;;
64959;SDS011;51487;52.266;10.542;2023-07-02T05:07:20;7.18;;;3.03;;
64959;SDS011;51487;52.266;10.542;2023-07-02T05:09:46;4.43;;;2.80;;
64959;SDS011;51487;52.266;10.542;2023-07-02T05:12:13;4.03;;;2.85;;
64959;SDS011;51487;52.266;10.542;2023-07-02T05:14:39;5.00;;;2.97;;
64959;SDS011;51487;52.266;10.542;2023-07-02T05:17:04;4.47;;;3.15;;
64959;SDS011;51487;52.266;10.542;2023-07-02T05:19:30;6.13;;;3.47;;
64959;SDS011;51487;52.266;10.542;2023-07-02T05:21:55;8.27;;;3.72;;
64959;SDS011;51487;52.266;10.542;2023-07-02T05:24:21;4.05;;;3.65;;
64959;SDS011;51487;52.266;10.542;2023-07-02T05:26:46;7.07;;;4.05;;
64959;SDS011;51487;52.266;10.542;2023-07-02T05:29:12;7.97;;;5.03;;
64959;SDS011;51487;52.266;10.542;2023-07-02T05:31:39;11.32;;;5.20;;
64959;SDS011;51487;52.266;10.542;2023-07-02T05:34:04;9.52;;;5.13;;
64959;SDS011;51487;52.266;10.542;2023-07-02T05:36:30;9.25;;;4.70;;
64959;SDS011;51487;52.266;10.542;2023-07-02T05:38:55;9.35;;;4.85;;
64959;SDS011;51487;52.266;10.542;2023-07-02T05:41:22;8.45;;;4.57;;
64959;SDS011;51487;52.266;10.542;2023-07-02T05:43:48;9.02;;;4.97;;
64959;SDS011;51487;52.266;10.542;2023-07-02T05:46:14;10.20;;;4.72;;
64959;SDS011;51487;52.266;10.542;2023-07-02T05:48:43;11.50;;;5.22;;
64959;SDS011;51487;52.266;10.542;2023-07-02T05:51:09;11.73;;;4.53;;
64959;SDS011;51487;52.266;10.542;2023-07-02T05:53:34;13.20;;;5.43;;
64959;SDS011;51487;52.266;10.542;2023-07-02T05:56:01;9.73;;;5.00;;
64959;SDS011;51487;52.266;10.542;2023-07-02T05:58:27;14.70;;;5.88;;
64959;SDS011;51487;52.266;10.542;2023-07-02T06:00:54;13.27;;;5.70;;
64959;SDS011;51487;52.266;10.542;2023-07-02T06:03:20;12.07;;;4.65;;
64959;SDS011;51487;52.266;10.542;2023-07-02T06:05:49;11.48;;;5.40;;
64959;SDS011;51487;52.266;10.542;2023-07-02T06:08:15;9.40;;;5.68;;
64959;SDS011;51487;52.266;10.542;2023-07-02T06:10:42;9.30;;;4.97;;
64959;SDS011;51487;52.266;10.542;2023-07-02T06:13:10;12.70;;;5.85;;
64959;SDS011;51487;52.266;10.542;2023-07-02T06:15:36;13.57;;;5.90;;
64959;SDS011;51487;52.266;10.542;2023-07-02T06:18:01;8.85;;;5.55;;
64959;SDS011;51487;52.266;10.542;2023-07-02T06:20:27;12.63;;;5.55;;
64959;SDS011;51487;52.266;10.542;2023-07-02T06:22:52;9.90;;;5.80;;
64959;SDS011;51487;52.266;10.542;2023-07-02T06:25:18;14.18;;;6.05;;
64959;SDS011;51487;52.266;10.542;2023-07-02T06:27:43;9.65;;;5.22;;
64959;SDS011;51487;52.266;10.542;2023-07-02T06:30:09;11.55;;;5.55;;
64959;SDS011;51487;52.266;10.542;2023-07-02T06:32:35;14.93;;;5.95;;
64959;SDS011;51487;52.266;10.542;2023-07-02T06:35:00;9.25;;;6.25;;
64959;SDS011;51487;52.266;10.542;2023-07-02T06:37:26;13.93;;;5.88;;
64959;SDS011;51487;52.266;10.542;2023-07-02T06:39:51;11.65;;;5.57;;
64959;SDS011;51487;52.266;10.542;2023-07-02T06:42:17;11.32;;;5.90;;
64959;SDS011;51487;52.266;10.542;2023-07-02T06:44:43;11.45;;;5.75;;
64959;SDS011;51487;52.266;10.542;2023-07-02T06:47:08;13.00;;;5.60;;
64959;SDS011;51487;52.266;10.542;2023-07-02T06:49:34;10.35;;;4.88;;
64959;SDS011;51487;52.266;10.542;2023-07-02T06:51:59;9.95;;;4.80;;
64959;SDS011;51487;52.266;10.542;2023-07-02T06:54:25;13.95;;;6.30;;
64959;SDS011;51487;52.266;10.542;2023-07-02T06:56:51;13.35;;;5.50;;
64959;SDS011;51487;52.266;10.542;2023-07-02T06:59:20;15.13;;;6.35;;
64959;SDS011;51487;52.266;10.542;2023-07-02T07:01:47;10.25;;;5.30;;
64959;SDS011;51487;52.266;10.542;2023-07-02T07:04:13;14.85;;;5.53;;
64959;SDS011;51487;52.266;10.542;2023-07-02T07:06:38;14.80;;;5.90;;
64959;SDS011;51487;52.266;10.542;2023-07-02T07:09:04;13.68;;;5.55;;
64959;SDS011;51487;52.266;10.542;2023-07-02T07:11:29;11.25;;;5.70;;
64959;SDS011;51487;52.266;10.542;2023-07-02T07:13:55;11.23;;;5.43;;
64959;SDS011;51487;52.266;10.542;2023-07-02T07:16:20;12.07;;;5.47;;
64959;SDS011;51487;52.266;10.542;2023-07-02T07:18:46;12.70;;;5.93;;
64959;SDS011;51487;52.266;10.542;2023-07-02T07:21:12;12.88;;;5.88;;
64959;SDS011;51487;52.266;10.542;2023-07-02T07:23:38;12.93;;;5.60;;
64959;SDS011;51487;52.266;10.542;2023-07-02T07:26:05;12.88;;;5.97;;
64959;SDS011;51487;52.266;10.542;2023-07-02T07:28:31;10.68;;;5.38;;
64959;SDS011;51487;52.266;10.542;2023-07-02T07:30:57;13.65;;;5.50;;
64959;SDS011;51487;52.266;10.542;2023-07-02T07:33:22;15.77;;;5.70;;
64959;SDS011;51487;52.266;10.542;2023-07-02T07:35:48;13.65;;;5.60;;
64959;SDS011;51487;52.266;10.542;2023-07-02T07:38:13;14.13;;;5.35;;
64959;SDS011;51487;52.266;10.542;2023-07-02T07:40:39;15.50;;;5.68;;
64959;SDS011;51487;52.266;10.542;2023-07-02T07:43:05;14.90;;;5.75;;
64959;SDS011;51487;52.266;10.542;2023-07-02T07:45:31;13.95;;;5.60;;
64959;SDS011;51487;52.266;10.542;2023-07-02T07:47:57;16.33;;;5.30;;
64959;SDS011;51487;52.266;10.542;2023-07-02T07:50:23;12.63;;;6.10;;
64959;SDS011;51487;52.266;10.542;2023-07-02T07:52:49;14.75;;;5.15;;
64959;SDS011;51487;52.266;10.542;2023-07-02T07:55:14;14.75;;;5.55;;
64959;SDS011;51487;52.266;10.542;2023-07-02T07:57:40;14.88;;;5.47;;
64959;SDS011;51487;52.266;10.542;2023-07-02T08:00:06;12.23;;;5.18;;
64959;SDS011;51487;52.266;10.542;2023-07-02T08:02:34;19.17;;;5.55;;
64959;SDS011;51487;52.266;10.542;2023-07-02T08:05:01;15.52;;;5.25;;
64959;SDS011;51487;52.266;10.542;2023-07-02T08:07:28;12.85;;;5.43;;
64959;SDS011;51487;52.266;10.542;2023-07-02T08:09:56;10.50;;;4.80;;
64959;SDS011;51487;52.266;10.542;2023-07-02T08:12:21;13.27;;;5.15;;
64959;SDS011;51487;52.266;10.542;2023-07-02T08:14:47;14.48;;;5.63;;
64959;SDS011;51487;52.266;10.542;2023-07-02T08:17:12;13.65;;;5.35;;
64959;SDS011;51487;52.266;10.542;2023-07-02T08:19:38;13.20;;;5.35;;
64959;SDS011;51487;52.266;10.542;2023-07-02T08:22:03;14.88;;;5.07;;
64959;SDS011;51487;52.266;10.542;2023-07-02T08:24:29;14.02;;;5.15;;
64959;SDS011;51487;52.266;10.542;2023-07-02T08:26:56;12.13;;;5.65;;
64959;SDS011;51487;52.266;10.542;2023-07-02T08:29:22;12.35;;;5.30;;
64959;SDS011;51487;52.266;10.542;2023-07-02T08:31:48;12.55;;;5.05;;
64959;SDS011;51487;52.266;10.542;2023-07-02T08:34:13;12.57;;;5.30;;
64959;SDS011;51487;52.266;10.542;2023-07-02T08:36:39;10.25;;;5.43;;
64959;SDS011;51487;52.266;10.542;2023-07-02T08:39:04;12.48;;;5.82;;
64959;SDS011;51487;52.266;10.542;2023-07-02T08:41:30;15.32;;;5.95;;
64959;SDS011;51487;52.266;10.542;2023-07-02T08:44:06;16.08;;;6.22;;
64959;SDS011;51487;52.266;10.542;2023-07-02T08:46:31;13.82;;;5.75;;
64959;SDS011;51487;52.266;10.542;2023-07-02T08:48:57;15.27;;;5.97;;
64959;SDS011;51487;52.266;10.542;2023-07-02T08:51:23;12.40;;;5.60;;
64959;SDS011;51487;52.266;10.542;2023-07-02T08:53:48;12.60;;;5.05;;
64959;SDS011;51487;52.266;10.542;2023-07-02T08:56:14;12.48;;;5.97;;
64959;SDS011;51487;52.266;10.542;2023-07-02T08:58:39;12.07;;;5.32;;
64959;SDS011;51487;52.266;10.542;2023-07-02T09:01:06;14.38;;;5.60;;
64959;SDS011;51487;52.266;10.542;2023-07-02T09:03:33;12.63;;;5.47;;
64959;SDS011;51487;52.266;10.542;2023-07-02T09:05:59;13.52;;;5.63;;
64959;SDS011;51487;52.266;10.542;2023-07-02T09:08:25;13.57;;;6.25;;
64959;SDS011;51487;52.266;10.542;2023-07-02T09:10:52;15.73;;;6.65;;
64959;SDS011;51487;52.266;10.542;2023-07-02T09:13:18;14.18;;;6.03;;
64959;SDS011;51487;52.266;10.542;2023-07-02T09:15:44;15.32;;;5.90;;
64959;SDS011;51487;52.266;10.542;2023-07-02T09:18:20;9.98;;;5.53;;
64959;SDS011;51487;52.266;10.542;2023-07-02T09:20:50;13.57;;;5.63;;
64959;SDS011;51487;52.266;10.542;2023-07-02T09:23:17;11.00;;;5.57;;
64959;SDS011;51487;52.266;10.542;2023-07-02T09:25:42;10.70;;;5.88;;
64959;SDS011;51487;52.266;10.542;2023-07-02T09:28:23;13.90;;;5.53;;
64959;SDS011;51487;52.266;10.542;2023-07-02T09:30:55;13.35;;;5.72;;
64959;SDS011;51487;52.266;10.542;2023-07-02T09:33:23;16.80;;;6.40;;
64959;SDS011;51487;52.266;10.542;2023-07-02T09:35:58;13.68;;;5.82;;
64959;SDS011;51487;52.266;10.542;2023-07-02T09:38:23;14.20;;;6.18;;
64959;SDS011;51487;52.266;10.542;2023-07-02T09:40:50;15.98;;;6.20;;
64959;SDS011;51487;52.266;10.542;2023-07-02T09:43:17;12.02;;;5.53;;
64959;SDS011;51487;52.266;10.542;2023-07-02T09:45:44;14.10;;;6.10;;
64959;SDS011;51487;52.266;10.542;2023-07-02T09:48:15;12.73;;;5.53;;
64959;SDS011;51487;52.266;10.542;2023-07-02T09:50:43;12.57;;;5.82;;
64959;SDS011;51487;52.266;10.542;2023-07-02T09:53:10;13.38;;;5.97;;
64959;SDS011;51487;52.266;10.542;2023-07-02T09:55:41;13.75;;;6.05;;
64959;SDS011;51487;52.266;10.542;2023-07-02T09:58:08;14.90;;;6.03;;
64959;SDS011;51487;52.266;10.542;2023-07-02T10:00:34;12.23;;;6.18;;
64959;SDS011;51487;52.266;10.542;2023-07-02T10:03:00;11.48;;;5.50;;
64959;SDS011;51487;52.266;10.542;2023-07-02T10:05:29;16.75;;;7.15;;
64959;SDS011;51487;52.266;10.542;2023-07-02T10:07:57;12.10;;;5.85;;
64959;SDS011;51487;52.266;10.542;2023-07-02T10:10:36;14.02;;;5.93;;
64959;SDS011;51487;52.266;10.542;2023-07-02T10:13:01;13.65;;;5.88;;
64959;SDS011;51487;52.266;10.542;2023-07-02T10:15:27;11.90;;;5.78;;
64959;SDS011;51487;52.266;10.542;2023-07-02T10:17:58;11.10;;;5.47;;
64959;SDS011;51487;52.266;10.542;2023-07-02T10:20:38;12.48;;;5.45;;
64959;SDS011;51487;52.266;10.542;2023-07-02T10:23:06;12.82;;;5.80;;
64959;SDS011;51487;52.266;10.542;2023-07-02T10:25:37;13.88;;;5.50;;
64959;SDS011;51487;52.266;10.542;2023-07-02T10:30:58;10.73;;;5.13;;
64959;SDS011;51487;52.266;10.542;2023-07-02T10:33:24;12.63;;;5.28;;
64959;SDS011;51487;52.266;10.542;2023-07-02T10:35:50;11.20;;;5.30;;
64959;SDS011;51487;52.266;10.542;2023-07-02T10:38:25;9.88;;;4.93;;
64959;SDS011;51487;52.266;10.542;2023-07-02T10:40:54;10.95;;;5.20;;
64959;SDS011;51487;52.266;10.542;2023-07-02T10:43:28;9.65;;;4.95;;
64959;SDS011;51487;52.266;10.542;2023-07-02T10:45:57;12.65;;;5.55;;
64959;SDS011;51487;52.266;10.542;2023-07-02T10:48:27;11.88;;;5.47;;
64959;SDS011;51487;52.266;10.542;2023-07-02T10:50:52;11.20;;;5.65;;
64959;SDS011;51487;52.266;10.542;2023-07-02T10:53:18;11.77;;;5.85;;
64959;SDS011;51487;52.266;10.542;2023-07-02T10:55:45;12.82;;;5.55;;
64959;SDS011;51487;52.266;10.542;2023-07-02T10:58:11;10.23;;;5.30;;
64959;SDS011;51487;52.266;10.542;2023-07-02T11:00:46;12.48;;;5.57;;
64959;SDS011;51487;52.266;10.542;2023-07-02T11:03:17;9.45;;;4.97;;
64959;SDS011;51487;52.266;10.542;2023-07-02T11:05:48;12.13;;;5.68;;
64959;SDS011;51487;52.266;10.542;2023-07-02T11:08:15;10.13;;;5.65;;
64959;SDS011;51487;52.266;10.542;2023-07-02T11:10:42;10.95;;;4.95;;
64959;SDS011;51487;52.266;10.542;2023-07-02T11:13:14;16.30;;;5.50;;
64959;SDS011;51487;52.266;10.542;2023-07-02T11:15:42;10.23;;;5.20;;
64959;SDS011;51487;52.266;10.542;2023-07-02T11:18:11;12.63;;;5.40;;
64959;SDS011;51487;52.266;10.542;2023-07-02T11:20:39;12.27;;;5.50;;
64959;SDS011;51487;52.266;10.542;2023-07-02T11:23:19;10.30;;;5.60;;
64959;SDS011;51487;52.266;10.542;2023-07-02T11:25:58;14.90;;;5.55;;
64959;SDS011;51487;52.266;10.542;2023-07-02T11:28:26;12.30;;;5.28;;
64959;SDS011;51487;52.266;10.542;2023-07-02T11:30:53;10.95;;;5.07;;
64959;SDS011;51487;52.266;10.542;2023-07-02T11:33:38;11.43;;;5.22;;
64959;SDS011;51487;52.266;10.542;2023-07-02T11:36:05;11.52;;;5.13;;
64959;SDS011;51487;52.266;10.542;2023-07-02T11:38:38;10.23;;;4.75;;
64959;SDS011;51487;52.266;10.542;2023-07-02T11:41:04;10.50;;;5.05;;
64959;SDS011;51487;52.266;10.542;2023-07-02T11:43:29;11.55;;;4.88;;
64959;SDS011;51487;52.266;10.542;2023-07-02T11:45:55;12.23;;;5.15;;
64959;SDS011;51487;52.266;10.542;2023-07-02T11:48:21;12.13;;;5.35;;
64959;SDS011;51487;52.266;10.542;2023-07-02T11:50:46;9.00;;;4.25;;
64959;SDS011;51487;52.266;10.542;2023-07-02T11:53:12;11.00;;;4.90;;
64959;SDS011;51487;52.266;10.542;2023-07-02T11:55:37;10.88;;;5.00;;
64959;SDS011;51487;52.266;10.542;2023-07-02T11:58:03;9.27;;;4.47;;
64959;SDS011;51487;52.266;10.542;2023-07-02T12:00:29;9.85;;;5.22;;
64959;SDS011;51487;52.266;10.542;2023-07-02T12:02:54;11.40;;;5.18;;
64959;SDS011;51487;52.266;10.542;2023-07-02T12:05:20;16.23;;;5.35;;
64959;SDS011;51487;52.266;10.542;2023-07-02T12:07:46;10.82;;;5.57;;
64959;SDS011;51487;52.266;10.542;2023-07-02T12:10:11;12.68;;;5.57;;
64959;SDS011;51487;52.266;10.542;2023-07-02T12:12:37;9.70;;;4.82;;
64959;SDS011;51487;52.266;10.542;2023-07-02T12:15:02;8.50;;;4.90;;
64959;SDS011;51487;52.266;10.542;2023-07-02T12:17:28;9.60;;;4.55;;
64959;SDS011;51487;52.266;10.542;2023-07-02T12:19:54;9.02;;;5.05;;
64959;SDS011;51487;52.266;10.542;2023-07-02T12:22:19;10.45;;;4.75;;
64959;SDS011;51487;52.266;10.542;2023-07-02T12:24:47;13.07;;;4.70;;
64959;SDS011;51487;52.266;10.542;2023-07-02T12:27:14;11.00;;;4.63;;
64959;SDS011;51487;52.266;10.542;2023-07-02T12:29:40;9.52;;;4.78;;
64959;SDS011;51487;52.266;10.542;2023-07-02T12:32:05;9.52;;;5.13;;
64959;SDS011;51487;52.266;10.542;2023-07-02T12:34:32;11.90;;;5.00;;
64959;SDS011;51487;52.266;10.542;2023-07-02T12:36:57;10.88;;;4.82;;
64959;SDS011;51487;52.266;10.542;2023-07-02T12:39:23;11.88;;;4.78;;
64959;SDS011;51487;52.266;10.542;2023-07-02T12:41:48;9.07;;;4.80;;
64959;SDS011;51487;52.266;10.542;2023-07-02T12:44:14;8.90;;;4.65;;
64959;SDS011;51487;52.266;10.542;2023-07-02T12:46:39;10.65;;;4.68;;
64959;SDS011;51487;52.266;10.542;2023-07-02T12:49:05;13.73;;;5.40;;
64959;SDS011;51487;52.266;10.542;2023-07-02T12:51:30;11.63;;;4.40;;
64959;SDS011;51487;52.266;10.542;2023-07-02T12:53:56;12.73;;;4.90;;
64959;SDS011;51487;52.266;10.542;2023-07-02T12:56:21;9.77;;;4.97;;
64959;SDS011;51487;52.266;10.542;2023-07-02T12:58:47;10.07;;;4.60;;
64959;SDS011;51487;52.266;10.542;2023-07-02T13:01:12;8.80;;;4.57;;
64959;SDS011;51487;52.266;10.542;2023-07-02T13:03:38;18.40;;;5.95;;
64959;SDS011;51487;52.266;10.542;2023-07-02T13:06:12;11.63;;;4.88;;
64959;SDS011;51487;52.266;10.542;2023-07-02T13:08:38;12.65;;;4.85;;
64959;SDS011;51487;52.266;10.542;2023-07-02T13:11:04;10.80;;;5.25;;
64959;SDS011;51487;52.266;10.542;2023-07-02T13:13:29;14.52;;;4.60;;
64959;SDS011;51487;52.266;10.542;2023-07-02T13:15:55;12.90;;;4.55;;
64959;SDS011;51487;52.266;10.542;2023-07-02T13:18:20;11.40;;;4.78;;
64959;SDS011;51487;52.266;10.542;2023-07-02T13:20:46;8.77;;;4.55;;
64959;SDS011;51487;52.266;10.542;2023-07-02T13:23:11;11.60;;;4.70;;
64959;SDS011;51487;52.266;10.542;2023-07-02T13:25:37;14.93;;;5.40;;
64959;SDS011;51487;52.266;10.542;2023-07-02T13:28:02;10.80;;;4.68;;
64959;SDS011;51487;52.266;10.542;2023-07-02T13:30:28;10.68;;;4.57;;
64959;SDS011;51487;52.266;10.542;2023-07-02T13:32:55;11.27;;;4.32;;
64959;SDS011;51487;52.266;10.542;2023-07-02T13:35:21;11.90;;;4.13;;
64959;SDS011;51487;52.266;10.542;2023-07-02T13:37:48;10.27;;;5.20;;
64959;SDS011;51487;52.266;10.542;2023-07-02T13:40:14;9.65;;;4.50;;
64959;SDS011;51487;52.266;10.542;2023-07-02T13:42:40;9.77;;;4.78;;
64959;SDS011;51487;52.266;10.542;2023-07-02T13:45:07;10.38;;;4.68;;
64959;SDS011;51487;52.266;10.542;2023-07-02T13:47:34;10.38;;;4.82;;
64959;SDS011;51487;52.266;10.542;2023-07-02T13:50:00;8.10;;;4.30;;
64959;SDS011;51487;52.266;10.542;2023-07-02T13:52:26;15.38;;;4.82;;
64959;SDS011;51487;52.266;10.542;2023-07-02T13:54:52;10.98;;;5.20;;
64959;SDS011;51487;52.266;10.542;2023-07-02T13:57:17;10.95;;;4.80;;
64959;SDS011;51487;52.266;10.542;2023-07-02T13:59:43;10.48;;;5.20;;
64959;SDS011;51487;52.266;10.542;2023-07-02T14:02:08;9.85;;;4.95;;
64959;SDS011;51487;52.266;10.542;2023-07-02T14:04:34;10.45;;;4.55;;
64959;SDS011;51487;52.266;10.542;2023-07-02T14:06:59;9.10;;;4.90;;
64959;SDS011;51487;52.266;10.542;2023-07-02T14:09:28;10.48;;;5.00;;
64959;SDS011;51487;52.266;10.542;2023-07-02T14:11:54;9.60;;;4.60;;
64959;SDS011;51487;52.266;10.542;2023-07-02T14:14:19;8.18;;;4.60;;
64959;SDS011;51487;52.266;10.542;2023-07-02T14:16:45;7.65;;;4.35;;
64959;SDS011;51487;52.266;10.542;2023-07-02T14:19:10;11.32;;;4.68;;
64959;SDS011;51487;52.266;10.542;2023-07-02T14:21:37;9.30;;;4.70;;
64959;SDS011;51487;52.266;10.542;2023-07-02T14:24:03;11.55;;;4.80;;
64959;SDS011;51487;52.266;10.542;2023-07-02T14:26:29;10.52;;;4.75;;
64959;SDS011;51487;52.266;10.542;2023-07-02T14:28:55;11.48;;;4.60;;
64959;SDS011;51487;52.266;10.542;2023-07-02T14:31:21;9.18;;;4.50;;
64959;SDS011;51487;52.266;10.542;2023-07-02T14:33:46;9.55;;;4.80;;
64959;SDS011;51487;52.266;10.542;2023-07-02T14:36:12;7.07;;;4.22;;